sensor_id;sensor_type;location;lat;lon;timestamp;temperature;humidity
9043;DHT22;4556;49.150;8.808;2023-07-13T00:01:44;15.90;99.90
9043;DHT22;4556;49.150;8.808;2023-07-13T00:04:15;15.80;99.90
9043;DHT22;4556;49.150;8.808;2023-07-13T00:06:43;15.90;99.90
9043;DHT22;4556;49.150;8.808;2023-07-13T00:09:11;15.80;99.90
9043;DHT22;4556;49.150;8.808;2023-07-13T00:11:39;16.30;99.90
9043;DHT22;4556;49.150;8.808;2023-07-13T00:14:06;15.70;99.90
9043;DHT22;4556;49.150;8.808;2023-07-13T00:16:33;15.70;99.90
9043;DHT22;4556;49.150;8.808;2023-07-13T00:19:01;15.70;99.90
9043;DHT22;4556;49.150;8.808;2023-07-13T00:21:27;15.60;99.90
9043;DHT22;4556;49.150;8.808;2023-07-13T00:23:56;15.50;99.90
9043;DHT22;4556;49.150;8.808;2023-07-13T00:26:23;15.40;99.90
9043;DHT22;4556;49.150;8.808;2023-07-13T00:28:50;15.30;99.90
9043;DHT22;4556;49.150;8.808;2023-07-13T00:31:17;15.30;99.90
9043;DHT22;4556;49.150;8.808;2023-07-13T00:33:44;15.20;99.90
9043;DHT22;4556;49.150;8.808;2023-07-13T00:36:11;15.40;99.90
9043;DHT22;4556;49.150;8.808;2023-07-13T00:38:38;15.80;99.90
9043;DHT22;4556;49.150;8.808;2023-07-13T00:41:07;15.50;99.90
9043;DHT22;4556;49.150;8.808;2023-07-13T00:43:34;15.70;99.90
9043;DHT22;4556;49.150;8.808;2023-07-13T00:46:20;15.40;99.90
9043;DHT22;4556;49.150;8.808;2023-07-13T00:48:49;15.40;99.90
9043;DHT22;4556;49.150;8.808;2023-07-13T00:51:19;15.10;99.90
9043;DHT22;4556;49.150;8.808;2023-07-13T00:53:47;15.10;99.90
9043;DHT22;4556;49.150;8.808;2023-07-13T00:56:16;15.10;99.90
9043;DHT22;4556;49.150;8.808;2023-07-13T00:58:43;16.20;99.90
9043;DHT22;4556;49.150;8.808;2023-07-13T01:01:10;15.80;99.90
9043;DHT22;4556;49.150;8.808;2023-07-13T01:03:38;14.90;99.90
9043;DHT22;4556;49.150;8.808;2023-07-13T01:06:06;15.00;99.90
9043;DHT22;4556;49.150;8.808;2023-07-13T01:08:33;15.10;99.90
9043;DHT22;4556;49.150;8.808;2023-07-13T01:11:00;15.00;99.90
9043;DHT22;4556;49.150;8.808;2023-07-13T01:13:29;14.90;99.90
9043;DHT22;4556;49.150;8.808;2023-07-13T01:15:58;14.90;99.90
9043;DHT22;4556;49.150;8.808;2023-07-13T01:18:29;15.00;99.90
9043;DHT22;4556;49.150;8.808;2023-07-13T01:20:59;15.00;99.90
9043;DHT22;4556;49.150;8.808;2023-07-13T01:23:27;14.90;99.90
9043;DHT22;4556;49.150;8.808;2023-07-13T01:25:55;14.80;99.90
9043;DHT22;4556;49.150;8.808;2023-07-13T01:28:23;14.80;99.90
9043;DHT22;4556;49.150;8.808;2023-07-13T01:30:53;14.80;99.90
9043;DHT22;4556;49.150;8.808;2023-07-13T01:33:21;14.70;99.90
9043;DHT22;4556;49.150;8.808;2023-07-13T01:35:48;14.60;99.90
9043;DHT22;4556;49.150;8.808;2023-07-13T01:38:20;14.50;99.90
9043;DHT22;4556;49.150;8.808;2023-07-13T01:40:48;15.80;99.90
9043;DHT22;4556;49.150;8.808;2023-07-13T01:43:15;14.60;99.90
9043;DHT22;4556;49.150;8.808;2023-07-13T01:45:42;15.00;99.90
9043;DHT22;4556;49.150;8.808;2023-07-13T01:48:09;14.50;99.90
9043;DHT22;4556;49.150;8.808;2023-07-13T01:50:36;14.50;99.90
9043;DHT22;4556;49.150;8.808;2023-07-13T01:53:03;14.70;99.90
9043;DHT22;4556;49.150;8.808;2023-07-13T01:55:33;14.70;99.90
9043;DHT22;4556;49.150;8.808;2023-07-13T01:58:00;14.60;99.90
9043;DHT22;4556;49.150;8.808;2023-07-13T02:00:26;14.60;99.90
9043;DHT22;4556;49.150;8.808;2023-07-13T02:02:53;14.60;99.90
9043;DHT22;4556;49.150;8.808;2023-07-13T02:05:20;14.40;99.90
9043;DHT22;4556;49.150;8.808;2023-07-13T02:07:47;14.50;99.90
9043;DHT22;4556;49.150;8.808;2023-07-13T02:10:15;14.40;99.90
9043;DHT22;4556;49.150;8.808;2023-07-13T02:12:44;14.30;99.90
9043;DHT22;4556;49.150;8.808;2023-07-13T02:15:10;14.20;99.90
9043;DHT22;4556;49.150;8.808;2023-07-13T02:17:37;14.10;99.90
9043;DHT22;4556;49.150;8.808;2023-07-13T02:20:05;14.20;99.90
9043;DHT22;4556;49.150;8.808;2023-07-13T02:22:32;14.20;99.90
9043;DHT22;4556;49.150;8.808;2023-07-13T02:24:59;14.10;99.90
9043;DHT22;4556;49.150;8.808;2023-07-13T02:27:27;13.90;99.90
9043;DHT22;4556;49.150;8.808;2023-07-13T02:29:55;14.30;99.90
9043;DHT22;4556;49.150;8.808;2023-07-13T02:32:22;13.80;99.90
9043;DHT22;4556;49.150;8.808;2023-07-13T02:34:50;13.80;99.90
9043;DHT22;4556;49.150;8.808;2023-07-13T02:37:17;14.30;99.90
9043;DHT22;4556;49.150;8.808;2023-07-13T02:39:44;16.20;99.90
9043;DHT22;4556;49.150;8.808;2023-07-13T02:42:11;13.80;99.90
9043;DHT22;4556;49.150;8.808;2023-07-13T02:44:38;13.60;99.90
9043;DHT22;4556;49.150;8.808;2023-07-13T02:47:07;13.90;99.90
9043;DHT22;4556;49.150;8.808;2023-07-13T02:49:34;13.50;99.90
9043;DHT22;4556;49.150;8.808;2023-07-13T02:52:01;13.30;99.90
9043;DHT22;4556;49.150;8.808;2023-07-13T02:54:28;13.40;99.90
9043;DHT22;4556;49.150;8.808;2023-07-13T02:56:55;13.80;99.90
9043;DHT22;4556;49.150;8.808;2023-07-13T02:59:22;13.50;99.90
9043;DHT22;4556;49.150;8.808;2023-07-13T03:01:48;13.30;99.90
9043;DHT22;4556;49.150;8.808;2023-07-13T03:04:17;13.30;99.90
9043;DHT22;4556;49.150;8.808;2023-07-13T03:06:45;13.20;99.90
9043;DHT22;4556;49.150;8.808;2023-07-13T03:09:12;13.30;99.90
9043;DHT22;4556;49.150;8.808;2023-07-13T03:11:39;13.00;99.90
9043;DHT22;4556;49.150;8.808;2023-07-13T03:14:07;13.30;99.90
9043;DHT22;4556;49.150;8.808;2023-07-13T03:16:34;13.10;99.90
9043;DHT22;4556;49.150;8.808;2023-07-13T03:19:01;12.90;99.90
9043;DHT22;4556;49.150;8.808;2023-07-13T03:21:30;13.00;99.90
9043;DHT22;4556;49.150;8.808;2023-07-13T03:23:57;13.00;99.90
9043;DHT22;4556;49.150;8.808;2023-07-13T03:26:23;12.90;99.90
9043;DHT22;4556;49.150;8.808;2023-07-13T03:28:50;13.00;99.90
9043;DHT22;4556;49.150;8.808;2023-07-13T03:31:20;13.10;99.90
9043;DHT22;4556;49.150;8.808;2023-07-13T03:33:48;13.00;99.90
9043;DHT22;4556;49.150;8.808;2023-07-13T03:36:16;13.10;99.90
9043;DHT22;4556;49.150;8.808;2023-07-13T03:38:46;12.80;99.90
9043;DHT22;4556;49.150;8.808;2023-07-13T03:41:14;12.70;99.90
9043;DHT22;4556;49.150;8.808;2023-07-13T03:43:41;12.70;99.90
9043;DHT22;4556;49.150;8.808;2023-07-13T03:46:08;12.60;99.90
9043;DHT22;4556;49.150;8.808;2023-07-13T03:48:35;12.70;99.90
9043;DHT22;4556;49.150;8.808;2023-07-13T03:51:02;12.70;99.90
9043;DHT22;4556;49.150;8.808;2023-07-13T03:53:29;12.80;99.90
9043;DHT22;4556;49.150;8.808;2023-07-13T03:55:57;12.80;99.90
9043;DHT22;4556;49.150;8.808;2023-07-13T03:58:27;13.30;99.90
9043;DHT22;4556;49.150;8.808;2023-07-13T04:00:55;13.00;99.90
9043;DHT22;4556;49.150;8.808;2023-07-13T04:03:23;12.90;99.90
9043;DHT22;4556;49.150;8.808;2023-07-13T04:05:50;13.10;99.90
9043;DHT22;4556;49.150;8.808;2023-07-13T04:08:17;13.10;99.90
9043;DHT22;4556;49.150;8.808;2023-07-13T04:10:44;13.00;99.90
9043;DHT22;4556;49.150;8.808;2023-07-13T04:13:12;13.20;99.90
9043;DHT22;4556;49.150;8.808;2023-07-13T04:15:40;14.00;99.90
9043;DHT22;4556;49.150;8.808;2023-07-13T04:18:07;13.30;99.90
9043;DHT22;4556;49.150;8.808;2023-07-13T04:20:34;13.40;99.90
9043;DHT22;4556;49.150;8.808;2023-07-13T04:23:01;14.30;99.90
9043;DHT22;4556;49.150;8.808;2023-07-13T04:25:28;13.50;99.90
9043;DHT22;4556;49.150;8.808;2023-07-13T04:27:56;13.40;99.90
9043;DHT22;4556;49.150;8.808;2023-07-13T04:30:24;13.50;99.90
9043;DHT22;4556;49.150;8.808;2023-07-13T04:32:52;13.50;99.90
9043;DHT22;4556;49.150;8.808;2023-07-13T04:35:20;13.50;99.90
9043;DHT22;4556;49.150;8.808;2023-07-13T04:37:48;13.60;99.90
9043;DHT22;4556;49.150;8.808;2023-07-13T04:40:16;13.70;99.90
9043;DHT22;4556;49.150;8.808;2023-07-13T04:42:43;13.80;99.90
9043;DHT22;4556;49.150;8.808;2023-07-13T04:45:11;13.90;99.90
9043;DHT22;4556;49.150;8.808;2023-07-13T04:47:40;14.00;99.90
9043;DHT22;4556;49.150;8.808;2023-07-13T04:50:08;14.00;99.90
9043;DHT22;4556;49.150;8.808;2023-07-13T04:52:36;14.10;99.90
9043;DHT22;4556;49.150;8.808;2023-07-13T04:55:03;14.20;99.90
9043;DHT22;4556;49.150;8.808;2023-07-13T04:57:32;14.30;99.90
9043;DHT22;4556;49.150;8.808;2023-07-13T04:59:59;14.30;99.90
9043;DHT22;4556;49.150;8.808;2023-07-13T05:02:26;14.40;99.90
9043;DHT22;4556;49.150;8.808;2023-07-13T05:04:55;14.60;99.90
9043;DHT22;4556;49.150;8.808;2023-07-13T05:07:22;14.80;99.90
9043;DHT22;4556;49.150;8.808;2023-07-13T05:09:49;14.80;99.90
9043;DHT22;4556;49.150;8.808;2023-07-13T05:12:16;15.00;99.90
9043;DHT22;4556;49.150;8.808;2023-07-13T05:14:43;15.20;99.90
9043;DHT22;4556;49.150;8.808;2023-07-13T05:17:10;15.50;99.90
9043;DHT22;4556;49.150;8.808;2023-07-13T05:19:37;15.70;99.90
9043;DHT22;4556;49.150;8.808;2023-07-13T05:22:06;16.00;99.90
9043;DHT22;4556;49.150;8.808;2023-07-13T05:24:33;16.20;99.90
9043;DHT22;4556;49.150;8.808;2023-07-13T05:27:00;16.30;99.90
9043;DHT22;4556;49.150;8.808;2023-07-13T05:29:27;16.30;99.90
9043;DHT22;4556;49.150;8.808;2023-07-13T05:31:55;16.20;99.90
9043;DHT22;4556;49.150;8.808;2023-07-13T05:34:22;16.40;99.90
9043;DHT22;4556;49.150;8.808;2023-07-13T05:36:49;16.50;99.90
9043;DHT22;4556;49.150;8.808;2023-07-13T05:39:18;16.40;99.90
9043;DHT22;4556;49.150;8.808;2023-07-13T05:41:45;16.50;99.90
9043;DHT22;4556;49.150;8.808;2023-07-13T05:44:11;16.60;99.90
9043;DHT22;4556;49.150;8.808;2023-07-13T05:46:38;17.00;99.90
9043;DHT22;4556;49.150;8.808;2023-07-13T05:49:05;17.00;99.90
9043;DHT22;4556;49.150;8.808;2023-07-13T05:51:32;17.40;99.90
9043;DHT22;4556;49.150;8.808;2023-07-13T05:53:59;17.40;99.90
9043;DHT22;4556;49.150;8.808;2023-07-13T05:56:27;18.00;99.90
9043;DHT22;4556;49.150;8.808;2023-07-13T05:58:56;17.90;99.90
9043;DHT22;4556;49.150;8.808;2023-07-13T06:01:23;18.10;99.90
9043;DHT22;4556;49.150;8.808;2023-07-13T06:03:50;18.40;99.90
9043;DHT22;4556;49.150;8.808;2023-07-13T06:06:18;18.60;99.90
9043;DHT22;4556;49.150;8.808;2023-07-13T06:08:45;18.70;99.90
9043;DHT22;4556;49.150;8.808;2023-07-13T06:11:14;18.80;99.90
9043;DHT22;4556;49.150;8.808;2023-07-13T06:13:43;18.90;99.90
9043;DHT22;4556;49.150;8.808;2023-07-13T06:16:10;19.00;99.90
9043;DHT22;4556;49.150;8.808;2023-07-13T06:18:38;19.30;99.90
9043;DHT22;4556;49.150;8.808;2023-07-13T06:21:07;20.00;99.90
9043;DHT22;4556;49.150;8.808;2023-07-13T06:23:34;19.60;99.90
9043;DHT22;4556;49.150;8.808;2023-07-13T06:26:01;19.80;99.90
9043;DHT22;4556;49.150;8.808;2023-07-13T06:28:28;20.10;99.90
9043;DHT22;4556;49.150;8.808;2023-07-13T06:30:57;20.30;99.90
9043;DHT22;4556;49.150;8.808;2023-07-13T06:33:24;20.60;99.90
9043;DHT22;4556;49.150;8.808;2023-07-13T06:35:51;20.60;99.90
9043;DHT22;4556;49.150;8.808;2023-07-13T06:38:18;20.80;99.90
9043;DHT22;4556;49.150;8.808;2023-07-13T06:40:45;21.00;99.90
9043;DHT22;4556;49.150;8.808;2023-07-13T06:43:12;21.10;99.90
9043;DHT22;4556;49.150;8.808;2023-07-13T06:45:40;21.20;99.90
9043;DHT22;4556;49.150;8.808;2023-07-13T06:48:09;21.30;99.90
9043;DHT22;4556;49.150;8.808;2023-07-13T06:50:36;21.40;99.90
9043;DHT22;4556;49.150;8.808;2023-07-13T06:53:03;21.50;99.90
9043;DHT22;4556;49.150;8.808;2023-07-13T06:55:30;21.40;99.90
9043;DHT22;4556;49.150;8.808;2023-07-13T06:57:57;21.40;99.90
9043;DHT22;4556;49.150;8.808;2023-07-13T07:00:24;21.50;99.90
9043;DHT22;4556;49.150;8.808;2023-07-13T07:02:51;21.70;99.90
9043;DHT22;4556;49.150;8.808;2023-07-13T07:05:20;22.00;99.90
9043;DHT22;4556;49.150;8.808;2023-07-13T07:07:47;21.20;99.90
9043;DHT22;4556;49.150;8.808;2023-07-13T07:10:14;22.70;99.90
9043;DHT22;4556;49.150;8.808;2023-07-13T07:12:41;22.40;99.90
9043;DHT22;4556;49.150;8.808;2023-07-13T07:15:09;22.50;99.90
9043;DHT22;4556;49.150;8.808;2023-07-13T07:17:36;22.50;99.90
9043;DHT22;4556;49.150;8.808;2023-07-13T07:20:04;22.80;99.90
9043;DHT22;4556;49.150;8.808;2023-07-13T07:22:32;22.70;99.90
9043;DHT22;4556;49.150;8.808;2023-07-13T07:24:59;22.60;99.90
9043;DHT22;4556;49.150;8.808;2023-07-13T07:27:26;22.40;99.90
9043;DHT22;4556;49.150;8.808;2023-07-13T07:29:53;22.40;99.90
9043;DHT22;4556;49.150;8.808;2023-07-13T07:32:20;22.50;99.90
9043;DHT22;4556;49.150;8.808;2023-07-13T07:34:47;22.40;99.90
9043;DHT22;4556;49.150;8.808;2023-07-13T07:37:14;22.30;99.90
9043;DHT22;4556;49.150;8.808;2023-07-13T07:39:43;22.50;99.90
9043;DHT22;4556;49.150;8.808;2023-07-13T07:42:10;22.90;99.90
9043;DHT22;4556;49.150;8.808;2023-07-13T07:47:06;23.20;99.90
9043;DHT22;4556;49.150;8.808;2023-07-13T07:49:33;23.40;99.90
9043;DHT22;4556;49.150;8.808;2023-07-13T07:52:00;23.60;99.90
9043;DHT22;4556;49.150;8.808;2023-07-13T07:54:27;23.80;99.90
9043;DHT22;4556;49.150;8.808;2023-07-13T07:56:56;23.90;99.90
9043;DHT22;4556;49.150;8.808;2023-07-13T07:59:23;24.00;99.90
9043;DHT22;4556;49.150;8.808;2023-07-13T08:01:50;24.00;99.90
9043;DHT22;4556;49.150;8.808;2023-07-13T08:04:17;24.00;99.90
9043;DHT22;4556;49.150;8.808;2023-07-13T08:06:44;24.00;99.90
9043;DHT22;4556;49.150;8.808;2023-07-13T08:09:11;23.80;99.90
9043;DHT22;4556;49.150;8.808;2023-07-13T08:11:56;24.00;99.90
9043;DHT22;4556;49.150;8.808;2023-07-13T08:14:23;24.10;99.90
9043;DHT22;4556;49.150;8.808;2023-07-13T08:16:50;23.90;99.90
9043;DHT22;4556;49.150;8.808;2023-07-13T08:19:17;23.60;99.90
9043;DHT22;4556;49.150;8.808;2023-07-13T08:21:44;23.50;99.90
9043;DHT22;4556;49.150;8.808;2023-07-13T08:24:14;23.40;99.90
9043;DHT22;4556;49.150;8.808;2023-07-13T08:26:40;23.70;99.90
9043;DHT22;4556;49.150;8.808;2023-07-13T08:29:09;24.00;99.90
9043;DHT22;4556;49.150;8.808;2023-07-13T08:31:36;24.30;99.90
9043;DHT22;4556;49.150;8.808;2023-07-13T08:34:03;24.50;99.90
9043;DHT22;4556;49.150;8.808;2023-07-13T08:36:30;24.20;99.90
9043;DHT22;4556;49.150;8.808;2023-07-13T08:38:57;24.10;99.90
9043;DHT22;4556;49.150;8.808;2023-07-13T08:41:24;24.30;99.90
9043;DHT22;4556;49.150;8.808;2023-07-13T08:43:56;24.20;99.90
9043;DHT22;4556;49.150;8.808;2023-07-13T08:46:28;24.40;99.90
9043;DHT22;4556;49.150;8.808;2023-07-13T08:49:00;24.30;99.90
9043;DHT22;4556;49.150;8.808;2023-07-13T08:51:34;24.50;99.90
9043;DHT22;4556;49.150;8.808;2023-07-13T08:54:07;24.50;99.90
9043;DHT22;4556;49.150;8.808;2023-07-13T08:56:36;24.30;99.90
9043;DHT22;4556;49.150;8.808;2023-07-13T08:59:09;24.40;99.90
9043;DHT22;4556;49.150;8.808;2023-07-13T09:01:49;24.60;99.90
9043;DHT22;4556;49.150;8.808;2023-07-13T09:04:20;24.60;99.90
9043;DHT22;4556;49.150;8.808;2023-07-13T09:06:55;24.40;99.90
9043;DHT22;4556;49.150;8.808;2023-07-13T09:09:31;24.70;99.90
9043;DHT22;4556;49.150;8.808;2023-07-13T09:12:08;24.80;99.90
9043;DHT22;4556;49.150;8.808;2023-07-13T09:14:44;25.00;99.90
9043;DHT22;4556;49.150;8.808;2023-07-13T09:17:17;24.90;99.90
9043;DHT22;4556;49.150;8.808;2023-07-13T09:19:48;25.10;99.90
9043;DHT22;4556;49.150;8.808;2023-07-13T09:22:19;25.20;99.90
9043;DHT22;4556;49.150;8.808;2023-07-13T09:24:55;25.30;99.90
9043;DHT22;4556;49.150;8.808;2023-07-13T09:27:30;25.40;99.90
9043;DHT22;4556;49.150;8.808;2023-07-13T09:30:07;25.30;99.90
9043;DHT22;4556;49.150;8.808;2023-07-13T09:32:39;25.50;99.90
9043;DHT22;4556;49.150;8.808;2023-07-13T09:35:10;25.40;99.90
9043;DHT22;4556;49.150;8.808;2023-07-13T09:37:38;25.20;99.90
9043;DHT22;4556;49.150;8.808;2023-07-13T09:40:14;25.40;99.90
9043;DHT22;4556;49.150;8.808;2023-07-13T09:42:43;25.50;99.90
9043;DHT22;4556;49.150;8.808;2023-07-13T09:45:10;25.60;99.90
9043;DHT22;4556;49.150;8.808;2023-07-13T09:47:44;25.90;99.90
9043;DHT22;4556;49.150;8.808;2023-07-13T09:50:15;25.60;99.90
9043;DHT22;4556;49.150;8.808;2023-07-13T09:52:45;25.70;99.90
9043;DHT22;4556;49.150;8.808;2023-07-13T09:55:24;25.70;99.90
9043;DHT22;4556;49.150;8.808;2023-07-13T09:57:52;25.70;99.90
9043;DHT22;4556;49.150;8.808;2023-07-13T10:00:30;25.90;99.90
9043;DHT22;4556;49.150;8.808;2023-07-13T10:03:05;26.00;99.90
9043;DHT22;4556;49.150;8.808;2023-07-13T10:05:45;26.10;99.90
9043;DHT22;4556;49.150;8.808;2023-07-13T10:08:24;25.90;99.90
9043;DHT22;4556;49.150;8.808;2023-07-13T10:10:58;25.70;99.90
9043;DHT22;4556;49.150;8.808;2023-07-13T10:13:34;25.30;99.90
9043;DHT22;4556;49.150;8.808;2023-07-13T10:16:02;25.60;99.90
9043;DHT22;4556;49.150;8.808;2023-07-13T10:18:41;25.50;99.90
9043;DHT22;4556;49.150;8.808;2023-07-13T10:21:15;25.00;99.90
9043;DHT22;4556;49.150;8.808;2023-07-13T10:23:45;24.90;99.90
9043;DHT22;4556;49.150;8.808;2023-07-13T10:26:22;25.10;99.90
9043;DHT22;4556;49.150;8.808;2023-07-13T10:29:03;25.30;99.90
9043;DHT22;4556;49.150;8.808;2023-07-13T10:31:32;25.50;99.90
9043;DHT22;4556;49.150;8.808;2023-07-13T10:34:03;25.70;99.90
9043;DHT22;4556;49.150;8.808;2023-07-13T10:36:38;25.50;99.90
9043;DHT22;4556;49.150;8.808;2023-07-13T10:39:09;25.70;99.90
9043;DHT22;4556;49.150;8.808;2023-07-13T10:41:40;25.80;99.90
9043;DHT22;4556;49.150;8.808;2023-07-13T10:44:25;25.70;99.90
9043;DHT22;4556;49.150;8.808;2023-07-13T10:46:58;25.90;99.90
9043;DHT22;4556;49.150;8.808;2023-07-13T10:49:30;26.20;99.50
9043;DHT22;4556;49.150;8.808;2023-07-13T10:51:57;25.90;98.80
9043;DHT22;4556;49.150;8.808;2023-07-13T10:54:28;25.60;98.90
9043;DHT22;4556;49.150;8.808;2023-07-13T10:57:23;25.40;99.90
9043;DHT22;4556;49.150;8.808;2023-07-13T11:00:15;25.80;99.90
9043;DHT22;4556;49.150;8.808;2023-07-13T11:02:42;26.20;99.90
9043;DHT22;4556;49.150;8.808;2023-07-13T11:05:34;26.20;99.90
9043;DHT22;4556;49.150;8.808;2023-07-13T11:08:19;26.40;99.90
9043;DHT22;4556;49.150;8.808;2023-07-13T11:10:53;25.70;97.50
9043;DHT22;4556;49.150;8.808;2023-07-13T11:13:55;25.60;99.90
9043;DHT22;4556;49.150;8.808;2023-07-13T11:16:43;25.90;99.90
9043;DHT22;4556;49.150;8.808;2023-07-13T11:19:41;26.30;99.20
9043;DHT22;4556;49.150;8.808;2023-07-13T11:22:22;26.10;99.80
9043;DHT22;4556;49.150;8.808;2023-07-13T11:25:02;25.90;99.70
9043;DHT22;4556;49.150;8.808;2023-07-13T11:27:51;25.80;99.40
9043;DHT22;4556;49.150;8.808;2023-07-13T11:30:32;25.20;99.90
9043;DHT22;4556;49.150;8.808;2023-07-13T11:33:14;25.40;99.90
9043;DHT22;4556;49.150;8.808;2023-07-13T11:35:45;25.10;99.90
9043;DHT22;4556;49.150;8.808;2023-07-13T11:38:17;25.00;99.90
9043;DHT22;4556;49.150;8.808;2023-07-13T11:40:47;24.60;99.90
9043;DHT22;4556;49.150;8.808;2023-07-13T11:43:15;24.60;99.90
9043;DHT22;4556;49.150;8.808;2023-07-13T11:45:43;24.80;99.90
9043;DHT22;4556;49.150;8.808;2023-07-13T11:48:21;24.70;99.90
9043;DHT22;4556;49.150;8.808;2023-07-13T11:51:09;24.60;99.90
9043;DHT22;4556;49.150;8.808;2023-07-13T11:54:02;24.30;99.90
9043;DHT22;4556;49.150;8.808;2023-07-13T11:56:42;25.00;99.90
9043;DHT22;4556;49.150;8.808;2023-07-13T11:59:12;24.80;99.90
9043;DHT22;4556;49.150;8.808;2023-07-13T12:01:43;24.60;99.90
9043;DHT22;4556;49.150;8.808;2023-07-13T12:04:20;24.50;99.90
9043;DHT22;4556;49.150;8.808;2023-07-13T12:06:57;24.60;99.90
9043;DHT22;4556;49.150;8.808;2023-07-13T12:09:28;24.70;99.90
9043;DHT22;4556;49.150;8.808;2023-07-13T12:11:57;26.40;99.90
9043;DHT22;4556;49.150;8.808;2023-07-13T12:14:34;25.50;99.90
9043;DHT22;4556;49.150;8.808;2023-07-13T12:17:03;25.40;99.90
9043;DHT22;4556;49.150;8.808;2023-07-13T12:22:00;25.80;99.90
9043;DHT22;4556;49.150;8.808;2023-07-13T12:24:29;25.70;99.90
9043;DHT22;4556;49.150;8.808;2023-07-13T12:27:00;25.60;99.90
9043;DHT22;4556;49.150;8.808;2023-07-13T12:29:48;25.50;99.90
9043;DHT22;4556;49.150;8.808;2023-07-13T12:32:31;25.40;99.90
9043;DHT22;4556;49.150;8.808;2023-07-13T12:35:15;25.10;99.90
9043;DHT22;4556;49.150;8.808;2023-07-13T12:37:58;25.40;99.90
9043;DHT22;4556;49.150;8.808;2023-07-13T12:40:32;25.60;99.90
9043;DHT22;4556;49.150;8.808;2023-07-13T12:43:39;25.90;99.80
9043;DHT22;4556;49.150;8.808;2023-07-13T12:46:20;26.00;99.90
9043;DHT22;4556;49.150;8.808;2023-07-13T12:48:49;26.30;99.90
9043;DHT22;4556;49.150;8.808;2023-07-13T12:51:20;26.50;98.40
9043;DHT22;4556;49.150;8.808;2023-07-13T12:53:56;26.60;98.90
9043;DHT22;4556;49.150;8.808;2023-07-13T12:59:03;26.00;98.60
9043;DHT22;4556;49.150;8.808;2023-07-13T13:01:41;26.00;99.20
9043;DHT22;4556;49.150;8.808;2023-07-13T13:04:12;26.00;99.90
9043;DHT22;4556;49.150;8.808;2023-07-13T13:06:39;25.70;99.40
9043;DHT22;4556;49.150;8.808;2023-07-13T13:09:12;25.60;99.00
9043;DHT22;4556;49.150;8.808;2023-07-13T13:11:52;25.60;99.90
9043;DHT22;4556;49.150;8.808;2023-07-13T13:15:04;25.50;99.90
9043;DHT22;4556;49.150;8.808;2023-07-13T13:17:38;25.30;99.90
9043;DHT22;4556;49.150;8.808;2023-07-13T13:22:31;25.10;99.60
9043;DHT22;4556;49.150;8.808;2023-07-13T13:25:00;25.00;99.40
9043;DHT22;4556;49.150;8.808;2023-07-13T13:27:27;25.00;99.90
9043;DHT22;4556;49.150;8.808;2023-07-13T13:29:57;25.10;99.90
9043;DHT22;4556;49.150;8.808;2023-07-13T13:32:24;25.40;99.90
9043;DHT22;4556;49.150;8.808;2023-07-13T13:34:51;25.30;99.90
9043;DHT22;4556;49.150;8.808;2023-07-13T13:37:20;25.20;99.90
9043;DHT22;4556;49.150;8.808;2023-07-13T13:40:00;25.10;99.80
9043;DHT22;4556;49.150;8.808;2023-07-13T13:42:27;25.00;99.90
9043;DHT22;4556;49.150;8.808;2023-07-13T13:44:56;25.10;99.90
9043;DHT22;4556;49.150;8.808;2023-07-13T13:47:30;25.00;99.60
9043;DHT22;4556;49.150;8.808;2023-07-13T13:50:00;24.90;99.90
9043;DHT22;4556;49.150;8.808;2023-07-13T13:52:29;22.50;98.70
9043;DHT22;4556;49.150;8.808;2023-07-13T13:54:55;25.00;99.90
9043;DHT22;4556;49.150;8.808;2023-07-13T13:57:25;25.00;99.90
9043;DHT22;4556;49.150;8.808;2023-07-13T13:59:56;25.30;99.90
9043;DHT22;4556;49.150;8.808;2023-07-13T14:02:25;25.60;99.90
9043;DHT22;4556;49.150;8.808;2023-07-13T14:04:55;25.50;99.30
9043;DHT22;4556;49.150;8.808;2023-07-13T14:07:23;25.50;98.20
9043;DHT22;4556;49.150;8.808;2023-07-13T14:09:52;25.50;97.90
9043;DHT22;4556;49.150;8.808;2023-07-13T14:12:19;25.50;99.50
9043;DHT22;4556;49.150;8.808;2023-07-13T14:14:58;25.60;99.50
9043;DHT22;4556;49.150;8.808;2023-07-13T14:17:34;25.80;98.40
9043;DHT22;4556;49.150;8.808;2023-07-13T14:20:01;25.90;97.00
9043;DHT22;4556;49.150;8.808;2023-07-13T14:22:30;25.80;99.30
9043;DHT22;4556;49.150;8.808;2023-07-13T14:25:01;25.90;99.60
9043;DHT22;4556;49.150;8.808;2023-07-13T14:27:31;25.20;96.30
9043;DHT22;4556;49.150;8.808;2023-07-13T14:29:59;25.80;97.10
9043;DHT22;4556;49.150;8.808;2023-07-13T14:32:29;25.40;97.00
9043;DHT22;4556;49.150;8.808;2023-07-13T14:35:05;25.40;98.80
9043;DHT22;4556;49.150;8.808;2023-07-13T14:37:32;25.90;97.80
9043;DHT22;4556;49.150;8.808;2023-07-13T14:40:01;25.50;98.00
9043;DHT22;4556;49.150;8.808;2023-07-13T14:42:28;25.70;98.30
9043;DHT22;4556;49.150;8.808;2023-07-13T14:44:55;25.80;97.90
9043;DHT22;4556;49.150;8.808;2023-07-13T14:47:24;25.60;97.10
9043;DHT22;4556;49.150;8.808;2023-07-13T14:49:51;25.80;96.80
9043;DHT22;4556;49.150;8.808;2023-07-13T14:52:23;25.70;95.70
9043;DHT22;4556;49.150;8.808;2023-07-13T14:54:51;25.60;98.20
9043;DHT22;4556;49.150;8.808;2023-07-13T14:57:20;25.40;97.60
9043;DHT22;4556;49.150;8.808;2023-07-13T14:59:47;25.20;96.60
9043;DHT22;4556;49.150;8.808;2023-07-13T15:02:16;25.10;98.60
9043;DHT22;4556;49.150;8.808;2023-07-13T15:04:45;25.30;99.10
9043;DHT22;4556;49.150;8.808;2023-07-13T15:07:14;25.60;98.80
9043;DHT22;4556;49.150;8.808;2023-07-13T15:09:43;25.70;98.20
9043;DHT22;4556;49.150;8.808;2023-07-13T15:12:10;25.60;96.60
9043;DHT22;4556;49.150;8.808;2023-07-13T15:14:37;25.40;98.10
9043;DHT22;4556;49.150;8.808;2023-07-13T15:17:08;25.20;98.60
9043;DHT22;4556;49.150;8.808;2023-07-13T15:19:42;24.80;99.00
9043;DHT22;4556;49.150;8.808;2023-07-13T15:22:11;24.60;98.60
9043;DHT22;4556;49.150;8.808;2023-07-13T15:24:38;24.50;97.50
9043;DHT22;4556;49.150;8.808;2023-07-13T15:27:10;24.60;98.80
9043;DHT22;4556;49.150;8.808;2023-07-13T15:29:37;24.50;97.50
9043;DHT22;4556;49.150;8.808;2023-07-13T15:32:13;25.10;98.20
9043;DHT22;4556;49.150;8.808;2023-07-13T15:34:41;24.90;96.60
9043;DHT22;4556;49.150;8.808;2023-07-13T15:37:14;25.20;97.90
9043;DHT22;4556;49.150;8.808;2023-07-13T15:39:41;24.90;98.50
9043;DHT22;4556;49.150;8.808;2023-07-13T15:42:13;24.90;97.70
9043;DHT22;4556;49.150;8.808;2023-07-13T15:44:41;24.90;96.90
9043;DHT22;4556;49.150;8.808;2023-07-13T15:47:11;24.80;97.70
9043;DHT22;4556;49.150;8.808;2023-07-13T15:49:47;24.80;98.50
9043;DHT22;4556;49.150;8.808;2023-07-13T15:52:21;25.10;98.00
9043;DHT22;4556;49.150;8.808;2023-07-13T15:54:50;24.70;98.10
9043;DHT22;4556;49.150;8.808;2023-07-13T15:57:17;24.40;98.40
9043;DHT22;4556;49.150;8.808;2023-07-13T15:59:45;24.50;97.90
9043;DHT22;4556;49.150;8.808;2023-07-13T16:02:13;24.60;97.30
9043;DHT22;4556;49.150;8.808;2023-07-13T16:04:43;24.50;97.50
9043;DHT22;4556;49.150;8.808;2023-07-13T16:07:10;24.70;98.40
9043;DHT22;4556;49.150;8.808;2023-07-13T16:09:40;24.60;97.10
9043;DHT22;4556;49.150;8.808;2023-07-13T16:12:10;24.50;99.00
9043;DHT22;4556;49.150;8.808;2023-07-13T16:14:38;24.40;98.10
9043;DHT22;4556;49.150;8.808;2023-07-13T16:17:07;24.50;97.90
9043;DHT22;4556;49.150;8.808;2023-07-13T16:19:35;24.50;96.30
9043;DHT22;4556;49.150;8.808;2023-07-13T16:22:03;24.60;98.70
9043;DHT22;4556;49.150;8.808;2023-07-13T16:24:33;24.60;99.30
9043;DHT22;4556;49.150;8.808;2023-07-13T16:27:08;24.60;99.10
9043;DHT22;4556;49.150;8.808;2023-07-13T16:29:36;24.40;98.70
9043;DHT22;4556;49.150;8.808;2023-07-13T16:32:06;24.50;99.90